sensor_id;sensor_type;location;lat;lon;timestamp;pressure;altitude;pressure_sealevel;temperature;humidity
60101;BME280;45978;53.646;55.930;2022-08-19T00:00:21;100876.00;;;14.43;44.52
60101;BME280;45978;53.646;55.930;2022-08-19T00:01:23;100873.44;;;14.40;44.89
60101;BME280;45978;53.646;55.930;2022-08-19T00:02:25;100876.25;;;14.34;44.92
60101;BME280;45978;53.646;55.930;2022-08-19T00:03:26;100878.91;;;14.32;45.40
60101;BME280;45978;53.646;55.930;2022-08-19T00:04:33;100879.88;;;14.30;45.59
60101;BME280;45978;53.646;55.930;2022-08-19T00:05:36;100885.16;;;14.30;45.26
60101;BME280;45978;53.646;55.930;2022-08-19T00:06:39;100884.34;;;14.27;45.32
60101;BME280;45978;53.646;55.930;2022-08-19T00:07:42;100888.78;;;14.27;45.44
60101;BME280;45978;53.646;55.930;2022-08-19T00:08:43;100883.69;;;14.19;45.81
60101;BME280;45978;53.646;55.930;2022-08-19T00:09:45;100896.06;;;14.17;46.09
60101;BME280;45978;53.646;55.930;2022-08-19T00:10:46;100894.38;;;14.15;46.03
60101;BME280;45978;53.646;55.930;2022-08-19T00:11:49;100892.63;;;14.14;46.09
60101;BME280;45978;53.646;55.930;2022-08-19T00:12:51;100883.09;;;14.08;46.08
60101;BME280;45978;53.646;55.930;2022-08-19T00:13:53;100890.28;;;14.03;46.51
60101;BME280;45978;53.646;55.930;2022-08-19T00:14:54;100891.22;;;14.00;46.04
60101;BME280;45978;53.646;55.930;2022-08-19T00:15:56;100885.94;;;14.00;46.54
60101;BME280;45978;53.646;55.930;2022-08-19T00:17:00;100881.59;;;13.98;46.67
60101;BME280;45978;53.646;55.930;2022-08-19T00:18:01;100890.34;;;14.00;46.67
60101;BME280;45978;53.646;55.930;2022-08-19T00:19:03;100886.88;;;13.98;46.59
60101;BME280;45978;53.646;55.930;2022-08-19T00:20:05;100888.69;;;13.96;47.00
60101;BME280;45978;53.646;55.930;2022-08-19T00:21:07;100883.47;;;13.93;46.51
60101;BME280;45978;53.646;55.930;2022-08-19T00:22:08;100886.13;;;13.93;46.68
60101;BME280;45978;53.646;55.930;2022-08-19T00:23:09;100898.38;;;13.97;46.47
60101;BME280;45978;53.646;55.930;2022-08-19T00:24:12;100897.50;;;13.95;47.23
60101;BME280;45978;53.646;55.930;2022-08-19T00:25:14;100902.91;;;13.92;47.23
60101;BME280;45978;53.646;55.930;2022-08-19T00:26:16;100909.06;;;13.91;47.08
60101;BME280;45978;53.646;55.930;2022-08-19T00:27:17;100899.47;;;13.88;47.04
60101;BME280;45978;53.646;55.930;2022-08-19T00:28:19;100909.16;;;13.88;47.04
60101;BME280;45978;53.646;55.930;2022-08-19T00:29:22;100909.16;;;13.88;47.37
60101;BME280;45978;53.646;55.930;2022-08-19T00:30:23;100910.06;;;13.86;47.78
60101;BME280;45978;53.646;55.930;2022-08-19T00:31:24;100916.25;;;13.85;47.75
60101;BME280;45978;53.646;55.930;2022-08-19T00:32:26;100910.19;;;13.80;47.58
60101;BME280;45978;53.646;55.930;2022-08-19T00:33:27;100914.63;;;13.80;47.90
60101;BME280;45978;53.646;55.930;2022-08-19T00:34:28;100911.06;;;13.81;48.28
60101;BME280;45978;53.646;55.930;2022-08-19T00:35:30;100916.44;;;13.78;47.75
60101;BME280;45978;53.646;55.930;2022-08-19T00:36:31;100923.44;;;13.79;47.86
60101;BME280;45978;53.646;55.930;2022-08-19T00:37:33;100926.03;;;13.80;48.22
60101;BME280;45978;53.646;55.930;2022-08-19T00:38:37;100926.00;;;13.82;47.79
60101;BME280;45978;53.646;55.930;2022-08-19T00:39:42;100923.44;;;13.79;47.96
60101;BME280;45978;53.646;55.930;2022-08-19T00:40:43;100927.84;;;13.78;48.20
60101;BME280;45978;53.646;55.930;2022-08-19T00:41:49;100934.16;;;13.73;48.75
60101;BME280;45978;53.646;55.930;2022-08-19T00:42:50;100934.13;;;13.74;48.64
60101;BME280;45978;53.646;55.930;2022-08-19T00:44:09;100942.91;;;13.75;48.73
60101;BME280;45978;53.646;55.930;2022-08-19T00:45:19;100938.56;;;13.72;48.83
60101;BME280;45978;53.646;55.930;2022-08-19T00:46:21;100938.59;;;13.71;48.78
60101;BME280;45978;53.646;55.930;2022-08-19T00:47:22;100940.25;;;13.75;48.16
60101;BME280;45978;53.646;55.930;2022-08-19T00:48:23;100942.16;;;13.70;48.44
60101;BME280;45978;53.646;55.930;2022-08-19T00:49:34;100942.09;;;13.71;48.33
60101;BME280;45978;53.646;55.930;2022-08-19T00:50:40;100943.03;;;13.70;48.57
60101;BME280;45978;53.646;55.930;2022-08-19T00:51:46;100943.88;;;13.71;48.90
60101;BME280;45978;53.646;55.930;2022-08-19T00:52:50;100947.38;;;13.71;49.12
60101;BME280;45978;53.646;55.930;2022-08-19T00:53:53;100955.34;;;13.70;48.99
60101;BME280;45978;53.646;55.930;2022-08-19T00:54:55;100950.09;;;13.68;49.08
60101;BME280;45978;53.646;55.930;2022-08-19T00:55:59;100954.47;;;13.69;49.15
60101;BME280;45978;53.646;55.930;2022-08-19T00:57:02;100951.00;;;13.67;48.98
60101;BME280;45978;53.646;55.930;2022-08-19T00:58:08;100944.81;;;13.68;49.17
60101;BME280;45978;53.646;55.930;2022-08-19T00:59:10;100950.06;;;13.70;49.25
60101;BME280;45978;53.646;55.930;2022-08-19T01:00:16;100953.59;;;13.69;49.38
60101;BME280;45978;53.646;55.930;2022-08-19T01:01:17;100949.28;;;13.66;49.32
60101;BME280;45978;53.646;55.930;2022-08-19T01:02:19;100950.13;;;13.66;49.82
60101;BME280;45978;53.646;55.930;2022-08-19T01:03:21;100965.13;;;13.66;50.26
60101;BME280;45978;53.646;55.930;2022-08-19T01:04:22;100953.75;;;13.62;50.44
60101;BME280;45978;53.646;55.930;2022-08-19T01:05:28;100954.72;;;13.58;50.75
60101;BME280;45978;53.646;55.930;2022-08-19T01:06:31;100959.22;;;13.55;50.46
60101;BME280;45978;53.646;55.930;2022-08-19T01:07:34;100959.31;;;13.50;51.29
60101;BME280;45978;53.646;55.930;2022-08-19T01:08:37;100964.66;;;13.47;50.92
60101;BME280;45978;53.646;55.930;2022-08-19T01:09:38;100969.13;;;13.43;50.89
60101;BME280;45978;53.646;55.930;2022-08-19T01:10:49;100971.75;;;13.43;51.33
60101;BME280;45978;53.646;55.930;2022-08-19T01:11:51;100962.16;;;13.41;51.61
60101;BME280;45978;53.646;55.930;2022-08-19T01:12:54;100966.66;;;13.36;51.84
60101;BME280;45978;53.646;55.930;2022-08-19T01:13:57;100967.59;;;13.33;51.75
60101;BME280;45978;53.646;55.930;2022-08-19T01:15:00;100964.97;;;13.32;51.99
60101;BME280;45978;53.646;55.930;2022-08-19T01:16:04;100965.88;;;13.32;51.90
60101;BME280;45978;53.646;55.930;2022-08-19T01:17:08;100964.06;;;13.34;51.56
60101;BME280;45978;53.646;55.930;2022-08-19T01:18:13;100960.50;;;13.35;51.89
60101;BME280;45978;53.646;55.930;2022-08-19T01:20:22;100971.00;;;13.38;52.02
60101;BME280;45978;53.646;55.930;2022-08-19T01:21:52;100972.81;;;13.36;52.45
60101;BME280;45978;53.646;55.930;2022-08-19T01:22:58;100971.06;;;13.35;51.93
60101;BME280;45978;53.646;55.930;2022-08-19T01:24:00;100972.88;;;13.33;52.39
60101;BME280;45978;53.646;55.930;2022-08-19T01:25:02;100972.88;;;13.33;52.34
60101;BME280;45978;53.646;55.930;2022-08-19T01:26:03;100974.63;;;13.34;52.66
60101;BME280;45978;53.646;55.930;2022-08-19T01:27:06;100984.28;;;13.34;52.80
60101;BME280;45978;53.646;55.930;2022-08-19T01:28:08;100979.91;;;13.34;53.10
60101;BME280;45978;53.646;55.930;2022-08-19T01:29:09;100987.81;;;13.34;52.48
60101;BME280;45978;53.646;55.930;2022-08-19T01:30:14;100986.91;;;13.35;52.06
60101;BME280;45978;53.646;55.930;2022-08-19T01:31:19;100991.28;;;13.36;52.58
60101;BME280;45978;53.646;55.930;2022-08-19T01:32:22;100994.75;;;13.38;52.78
60101;BME280;45978;53.646;55.930;2022-08-19T01:33:23;101000.84;;;13.42;52.49
60101;BME280;45978;53.646;55.930;2022-08-19T01:34:24;100996.47;;;13.39;52.52
60101;BME280;45978;53.646;55.930;2022-08-19T01:35:28;100994.69;;;13.41;52.51
60101;BME280;45978;53.646;55.930;2022-08-19T01:36:35;100992.03;;;13.41;52.52
60101;BME280;45978;53.646;55.930;2022-08-19T01:37:52;101004.34;;;13.42;52.88
60101;BME280;45978;53.646;55.930;2022-08-19T01:38:55;100999.81;;;13.47;52.52
60101;BME280;45978;53.646;55.930;2022-08-19T01:39:56;100998.97;;;13.45;51.75
60101;BME280;45978;53.646;55.930;2022-08-19T01:40:58;101008.50;;;13.54;51.44
60101;BME280;45978;53.646;55.930;2022-08-19T01:41:59;101014.50;;;13.61;51.35
60101;BME280;45978;53.646;55.930;2022-08-19T01:43:04;101014.41;;;13.65;51.64
60101;BME280;45978;53.646;55.930;2022-08-19T01:44:07;101022.03;;;13.78;51.08
60101;BME280;45978;53.646;55.930;2022-08-19T01:45:09;101025.41;;;14.22;50.61
60101;BME280;45978;53.646;55.930;2022-08-19T01:46:11;101021.00;;;14.91;49.04
60101;BME280;45978;53.646;55.930;2022-08-19T01:47:12;101017.44;;;15.84;47.13
60101;BME280;45978;53.646;55.930;2022-08-19T01:48:15;101012.84;;;16.70;45.04
60101;BME280;45978;53.646;55.930;2022-08-19T01:49:21;101022.09;;;17.57;43.16
60101;BME280;45978;53.646;55.930;2022-08-19T01:50:23;101023.78;;;18.26;41.81
60101;BME280;45978;53.646;55.930;2022-08-19T01:51:26;101016.75;;;18.88;40.90
60101;BME280;45978;53.646;55.930;2022-08-19T01:52:27;101013.81;;;19.52;39.44
60101;BME280;45978;53.646;55.930;2022-08-19T01:53:29;101023.81;;;20.04;38.32
60101;BME280;45978;53.646;55.930;2022-08-19T01:54:31;101023.47;;;20.47;37.49
60101;BME280;45978;53.646;55.930;2022-08-19T01:55:35;101017.59;;;20.92;36.75
60101;BME280;45978;53.646;55.930;2022-08-19T01:56:38;101013.53;;;21.19;36.48
60101;BME280;45978;53.646;55.930;2022-08-19T01:57:43;101021.97;;;21.60;35.59
60101;BME280;45978;53.646;55.930;2022-08-19T01:58:55;101028.69;;;21.99;34.79
60101;BME280;45978;53.646;55.930;2022-08-19T01:59:58;101029.69;;;22.44;34.23
60101;BME280;45978;53.646;55.930;2022-08-19T02:01:00;101045.09;;;22.71;33.63
60101;BME280;45978;53.646;55.930;2022-08-19T02:02:03;101030.59;;;23.04;32.89
60101;BME280;45978;53.646;55.930;2022-08-19T02:03:07;101025.25;;;23.32;32.14
60101;BME280;45978;53.646;55.930;2022-08-19T02:04:13;101019.25;;;23.70;31.58
60101;BME280;45978;53.646;55.930;2022-08-19T02:05:15;101016.22;;;24.04;31.01
60101;BME280;45978;53.646;55.930;2022-08-19T02:06:18;101023.59;;;24.27;30.81
60101;BME280;45978;53.646;55.930;2022-08-19T02:07:20;101014.22;;;24.47;30.30
60101;BME280;45978;53.646;55.930;2022-08-19T02:08:22;101022.97;;;24.64;29.81
60101;BME280;45978;53.646;55.930;2022-08-19T02:09:23;101024.25;;;24.71;30.10
60101;BME280;45978;53.646;55.930;2022-08-19T02:10:25;101016.13;;;24.85;29.76
60101;BME280;45978;53.646;55.930;2022-08-19T02:11:29;101024.91;;;24.75;29.78
60101;BME280;45978;53.646;55.930;2022-08-19T02:12:32;101024.28;;;24.84;30.14
60101;BME280;45978;53.646;55.930;2022-08-19T02:13:33;101021.69;;;25.08;29.57
60101;BME280;45978;53.646;55.930;2022-08-19T02:14:36;101019.38;;;25.29;29.17
60101;BME280;45978;53.646;55.930;2022-08-19T02:15:38;101030.63;;;25.47;28.98
60101;BME280;45978;53.646;55.930;2022-08-19T02:16:39;101029.47;;;25.75;28.66
60101;BME280;45978;53.646;55.930;2022-08-19T02:17:41;101031.59;;;25.96;28.63
60101;BME280;45978;53.646;55.930;2022-08-19T02:18:42;101039.50;;;26.10;28.14
60101;BME280;45978;53.646;55.930;2022-08-19T02:19:44;101037.06;;;26.07;27.75
60101;BME280;45978;53.646;55.930;2022-08-19T02:20:46;101039.91;;;26.17;28.14
60101;BME280;45978;53.646;55.930;2022-08-19T02:21:48;101039.31;;;26.00;28.18
60101;BME280;45978;53.646;55.930;2022-08-19T02:22:49;101043.19;;;26.09;27.83
60101;BME280;45978;53.646;55.930;2022-08-19T02:23:51;101043.28;;;26.32;27.75
60101;BME280;45978;53.646;55.930;2022-08-19T02:24:53;101047.59;;;26.70;27.30
60101;BME280;45978;53.646;55.930;2022-08-19T02:25:55;101038.31;;;26.85;26.91
60101;BME280;45978;53.646;55.930;2022-08-19T02:26:56;101045.25;;;27.23;26.63
60101;BME280;45978;53.646;55.930;2022-08-19T02:27:58;101054.97;;;27.37;26.29
60101;BME280;45978;53.646;55.930;2022-08-19T02:28:59;101046.34;;;27.65;25.88
60101;BME280;45978;53.646;55.930;2022-08-19T02:30:01;101040.56;;;27.81;25.55
60101;BME280;45978;53.646;55.930;2022-08-19T02:31:03;101047.56;;;27.95;25.09
60101;BME280;45978;53.646;55.930;2022-08-19T02:32:09;101047.94;;;27.91;25.22
60101;BME280;45978;53.646;55.930;2022-08-19T02:33:10;101050.75;;;27.78;25.32
60101;BME280;45978;53.646;55.930;2022-08-19T02:34:12;101053.25;;;27.58;25.51
60101;BME280;45978;53.646;55.930;2022-08-19T02:35:14;101048.31;;;27.63;25.34
60101;BME280;45978;53.646;55.930;2022-08-19T02:36:16;101052.09;;;27.83;25.21
60101;BME280;45978;53.646;55.930;2022-08-19T02:37:17;101050.50;;;27.81;25.59
60101;BME280;45978;53.646;55.930;2022-08-19T02:38:38;101048.44;;;27.73;25.64
60101;BME280;45978;53.646;55.930;2022-08-19T02:39:39;101050.44;;;28.15;25.10
60101;BME280;45978;53.646;55.930;2022-08-19T02:40:40;101054.53;;;28.41;24.60
60101;BME280;45978;53.646;55.930;2022-08-19T02:41:41;101046.84;;;28.58;24.63
60101;BME280;45978;53.646;55.930;2022-08-19T02:42:43;101059.78;;;28.96;23.96
60101;BME280;45978;53.646;55.930;2022-08-19T02:43:50;101061.38;;;28.99;23.89
60101;BME280;45978;53.646;55.930;2022-08-19T02:44:55;101052.59;;;29.28;23.96
60101;BME280;45978;53.646;55.930;2022-08-19T02:45:57;101058.34;;;29.75;23.65
60101;BME280;45978;53.646;55.930;2022-08-19T02:46:58;101054.56;;;30.07;23.02
60101;BME280;45978;53.646;55.930;2022-08-19T02:48:00;101055.56;;;30.25;22.53
60101;BME280;45978;53.646;55.930;2022-08-19T02:49:05;101056.59;;;30.44;22.51
60101;BME280;45978;53.646;55.930;2022-08-19T02:50:07;101061.88;;;30.55;22.54
60101;BME280;45978;53.646;55.930;2022-08-19T02:51:08;101066.28;;;30.75;22.14
60101;BME280;45978;53.646;55.930;2022-08-19T02:52:09;101068.81;;;30.87;21.96
60101;BME280;45978;53.646;55.930;2022-08-19T02:53:11;101066.28;;;30.85;22.00
60101;BME280;45978;53.646;55.930;2022-08-19T02:54:14;101069.56;;;30.89;21.66
60101;BME280;45978;53.646;55.930;2022-08-19T02:55:17;101073.25;;;30.88;21.85
60101;BME280;45978;53.646;55.930;2022-08-19T02:56:19;101074.72;;;30.63;21.83
60101;BME280;45978;53.646;55.930;2022-08-19T02:57:20;101068.13;;;30.26;21.18
60101;BME280;45978;53.646;55.930;2022-08-19T02:58:22;101063.75;;;30.35;20.71
60101;BME280;45978;53.646;55.930;2022-08-19T02:59:24;101069.88;;;30.47;20.32
60101;BME280;45978;53.646;55.930;2022-08-19T03:00:26;101075.41;;;30.74;20.09
60101;BME280;45978;53.646;55.930;2022-08-19T03:01:30;101075.13;;;30.97;19.77
60101;BME280;45978;53.646;55.930;2022-08-19T03:02:32;101073.47;;;31.24;18.74
60101;BME280;45978;53.646;55.930;2022-08-19T03:03:33;101065.44;;;31.32;19.18
60101;BME280;45978;53.646;55.930;2022-08-19T03:04:34;101064.56;;;31.41;18.65
60101;BME280;45978;53.646;55.930;2022-08-19T03:05:35;101070.63;;;31.63;18.38
60101;BME280;45978;53.646;55.930;2022-08-19T03:06:42;101070.88;;;31.69;18.33
60101;BME280;45978;53.646;55.930;2022-08-19T03:07:44;101072.78;;;31.22;19.04
60101;BME280;45978;53.646;55.930;2022-08-19T03:08:48;101070.16;;;31.30;18.67
60101;BME280;45978;53.646;55.930;2022-08-19T03:09:50;101076.88;;;31.35;19.01
60101;BME280;45978;53.646;55.930;2022-08-19T03:10:51;101080.63;;;31.25;18.50
60101;BME280;45978;53.646;55.930;2022-08-19T03:11:53;101084.00;;;30.79;18.57
60101;BME280;45978;53.646;55.930;2022-08-19T03:12:54;101071.59;;;30.48;18.77
60101;BME280;45978;53.646;55.930;2022-08-19T03:13:56;101082.53;;;30.27;19.23
60101;BME280;45978;53.646;55.930;2022-08-19T03:14:57;101075.69;;;30.23;19.20
60101;BME280;45978;53.646;55.930;2022-08-19T03:15:58;101075.13;;;30.77;18.77
60101;BME280;45978;53.646;55.930;2022-08-19T03:17:00;101072.22;;;31.08;18.39
60101;BME280;45978;53.646;55.930;2022-08-19T03:18:01;101075.78;;;31.28;18.12
60101;BME280;45978;53.646;55.930;2022-08-19T03:19:02;101071.88;;;31.31;18.12
60101;BME280;45978;53.646;55.930;2022-08-19T03:20:04;101087.03;;;31.33;18.00
60101;BME280;45978;53.646;55.930;2022-08-19T03:21:23;101072.28;;;31.73;17.69
60101;BME280;45978;53.646;55.930;2022-08-19T03:22:25;101072.94;;;31.57;18.02
60101;BME280;45978;53.646;55.930;2022-08-19T03:23:26;101072.22;;;31.83;18.05
60101;BME280;45978;53.646;55.930;2022-08-19T03:24:28;101077.31;;;31.96;18.09
60101;BME280;45978;53.646;55.930;2022-08-19T03:25:29;101070.69;;;32.26;17.80
60101;BME280;45978;53.646;55.930;2022-08-19T03:26:31;101075.34;;;32.34;17.24
60101;BME280;45978;53.646;55.930;2022-08-19T03:27:33;101077.56;;;31.75;17.77
60101;BME280;45978;53.646;55.930;2022-08-19T03:28:34;101080.47;;;31.64;17.87
60101;BME280;45978;53.646;55.930;2022-08-19T03:29:37;101077.31;;;31.96;18.13
60101;BME280;45978;53.646;55.930;2022-08-19T03:30:39;101076.97;;;32.09;17.67
60101;BME280;45978;53.646;55.930;2022-08-19T03:31:42;101078.53;;;32.29;17.56
60101;BME280;45978;53.646;55.930;2022-08-19T03:32:45;101083.19;;;32.37;17.03
60101;BME280;45978;53.646;55.930;2022-08-19T03:33:46;101087.13;;;32.07;17.73
60101;BME280;45978;53.646;55.930;2022-08-19T03:34:48;101089.31;;;32.03;17.68
60101;BME280;45978;53.646;55.930;2022-08-19T03:36:06;101085.81;;;32.11;17.40
60101;BME280;45978;53.646;55.930;2022-08-19T03:37:11;101086.84;;;32.10;17.40
60101;BME280;45978;53.646;55.930;2022-08-19T03:38:13;101087.75;;;32.19;17.00
60101;BME280;45978;53.646;55.930;2022-08-19T03:39:14;101103.91;;;32.02;16.82
60101;BME280;45978;53.646;55.930;2022-08-19T03:40:16;101100.75;;;31.97;17.16
60101;BME280;45978;53.646;55.930;2022-08-19T03:41:22;101097.09;;;32.16;16.60
60101;BME280;45978;53.646;55.930;2022-08-19T03:42:24;101106.19;;;31.97;16.29
60101;BME280;45978;53.646;55.930;2022-08-19T03:43:27;101098.03;;;32.25;16.65
60101;BME280;45978;53.646;55.930;2022-08-19T03:44:30;101100.84;;;32.33;16.58
60101;BME280;45978;53.646;55.930;2022-08-19T03:45:33;101101.25;;;32.56;16.47
60101;BME280;45978;53.646;55.930;2022-08-19T03:46:35;101109.00;;;32.51;16.25
60101;BME280;45978;53.646;55.930;2022-08-19T03:47:40;101102.63;;;31.96;16.40
60101;BME280;45978;53.646;55.930;2022-08-19T03:48:42;101111.22;;;31.92;16.62
60101;BME280;45978;53.646;55.930;2022-08-19T03:49:44;101116.44;;;31.38;17.15
60101;BME280;45978;53.646;55.930;2022-08-19T03:50:46;101107.69;;;30.97;17.45
60101;BME280;45978;53.646;55.930;2022-08-19T03:51:48;101104.97;;;31.07;17.02
60101;BME280;45978;53.646;55.930;2022-08-19T03:52:51;101103.38;;;30.85;17.33
60101;BME280;45978;53.646;55.930;2022-08-19T03:53:53;101109.28;;;30.90;17.20
60101;BME280;45978;53.646;55.930;2022-08-19T03:54:54;101111.97;;;30.80;17.74
60101;BME280;45978;53.646;55.930;2022-08-19T03:55:56;101107.09;;;29.75;18.30
60101;BME280;45978;53.646;55.930;2022-08-19T03:56:59;101101.34;;;30.18;17.75
60101;BME280;45978;53.646;55.930;2022-08-19T03:58:01;101098.84;;;30.36;17.88
60101;BME280;45978;53.646;55.930;2022-08-19T03:59:03;101105.69;;;30.40;17.64
60101;BME280;45978;53.646;55.930;2022-08-19T04:00:05;101107.38;;;30.22;17.74
60101;BME280;45978;53.646;55.930;2022-08-19T04:01:14;101102.44;;;29.96;17.67
60101;BME280;45978;53.646;55.930;2022-08-19T04:02:17;101111.31;;;30.08;18.11
60101;BME280;45978;53.646;55.930;2022-08-19T04:03:18;101113.97;;;30.58;18.06
60101;BME280;45978;53.646;55.930;2022-08-19T04:04:19;101118.69;;;30.76;17.82
60101;BME280;45978;53.646;55.930;2022-08-19T04:05:20;101120.69;;;30.93;17.92
60101;BME280;45978;53.646;55.930;2022-08-19T04:06:25;101115.13;;;30.95;17.23
60101;BME280;45978;53.646;55.930;2022-08-19T04:07:27;101122.81;;;30.70;17.26
60101;BME280;45978;53.646;55.930;2022-08-19T04:08:28;101121.13;;;30.69;17.03
60101;BME280;45978;53.646;55.930;2022-08-19T04:09:30;101117.97;;;30.54;16.95
60101;BME280;45978;53.646;55.930;2022-08-19T04:10:36;101123.09;;;30.67;17.04
60101;BME280;45978;53.646;55.930;2022-08-19T04:11:40;101123.66;;;30.42;17.40
60101;BME280;45978;53.646;55.930;2022-08-19T04:12:42;101117.25;;;30.82;17.47
60101;BME280;45978;53.646;55.930;2022-08-19T04:13:43;101124.41;;;30.92;17.51
60101;BME280;45978;53.646;55.930;2022-08-19T04:14:45;101126.38;;;30.61;17.34
60101;BME280;45978;53.646;55.930;2022-08-19T04:15:46;101123.78;;;30.79;17.22
60101;BME280;45978;53.646;55.930;2022-08-19T04:16:48;101125.25;;;30.73;17.29
60101;BME280;45978;53.646;55.930;2022-08-19T04:17:49;101138.66;;;31.04;17.13
60101;BME280;45978;53.646;55.930;2022-08-19T04:18:50;101126.69;;;30.58;17.70
60101;BME280;45978;53.646;55.930;2022-08-19T04:19:52;101118.81;;;30.35;17.85
60101;BME280;45978;53.646;55.930;2022-08-19T04:20:56;101130.53;;;30.36;17.76
60101;BME280;45978;53.646;55.930;2022-08-19T04:21:57;101126.25;;;30.92;17.08
60101;BME280;45978;53.646;55.930;2022-08-19T04:22:59;101129.59;;;31.43;16.69
60101;BME280;45978;53.646;55.930;2022-08-19T04:24:01;101130.84;;;31.58;16.68
60101;BME280;45978;53.646;55.930;2022-08-19T04:25:03;101130.09;;;31.66;16.53
60101;BME280;45978;53.646;55.930;2022-08-19T04:26:04;101135.09;;;31.98;16.28
60101;BME280;45978;53.646;55.930;2022-08-19T04:27:05;101132.50;;;31.96;16.47
60101;BME280;45978;53.646;55.930;2022-08-19T04:28:08;101131.84;;;31.85;16.37
60101;BME280;45978;53.646;55.930;2022-08-19T04:29:14;101140.81;;;31.67;17.00
60101;BME280;45978;53.646;55.930;2022-08-19T04:30:16;101130.34;;;31.25;16.65
60101;BME280;45978;53.646;55.930;2022-08-19T04:31:24;101128.13;;;31.58;16.53
60101;BME280;45978;53.646;55.930;2022-08-19T04:32:29;101132.00;;;31.83;16.07
60101;BME280;45978;53.646;55.930;2022-08-19T04:33:32;101136.34;;;31.29;16.48
60101;BME280;45978;53.646;55.930;2022-08-19T04:34:33;101138.91;;;31.30;16.66
60101;BME280;45978;53.646;55.930;2022-08-19T04:35:42;101141.78;;;31.19;16.70
60101;BME280;45978;53.646;55.930;2022-08-19T04:36:44;101144.53;;;30.90;17.04
60101;BME280;45978;53.646;55.930;2022-08-19T04:37:45;101142.94;;;31.16;16.90
60101;BME280;45978;53.646;55.930;2022-08-19T04:38:52;101146.28;;;31.38;16.92
60101;BME280;45978;53.646;55.930;2022-08-19T04:39:54;101145.09;;;31.03;17.13
60101;BME280;45978;53.646;55.930;2022-08-19T04:41:14;101137.22;;;30.71;17.29
60101;BME280;45978;53.646;55.930;2022-08-19T04:42:34;101148.06;;;30.71;17.41
60101;BME280;45978;53.646;55.930;2022-08-19T04:43:41;101147.81;;;30.84;17.22
60101;BME280;45978;53.646;55.930;2022-08-19T04:44:42;101139.09;;;31.09;17.11
60101;BME280;45978;53.646;55.930;2022-08-19T04:45:44;101147.69;;;31.62;16.68
60101;BME280;45978;53.646;55.930;2022-08-19T04:46:48;101143.44;;;31.87;16.23
60101;BME280;45978;53.646;55.930;2022-08-19T04:47:49;101151.03;;;31.83;16.50
60101;BME280;45978;53.646;55.930;2022-08-19T04:49:17;101150.13;;;32.02;16.19
60101;BME280;45978;53.646;55.930;2022-08-19T04:50:19;101147.63;;;32.09;16.43
60101;BME280;45978;53.646;55.930;2022-08-19T04:51:20;101147.63;;;32.36;16.32
60101;BME280;45978;53.646;55.930;2022-08-19T04:52:21;101145.34;;;32.50;16.18
60101;BME280;45978;53.646;55.930;2022-08-19T04:53:25;101132.44;;;32.52;16.49
60101;BME280;45978;53.646;55.930;2022-08-19T04:54:30;101142.63;;;32.32;16.43
60101;BME280;45978;53.646;55.930;2022-08-19T04:55:32;101147.47;;;31.83;16.58
60101;BME280;45978;53.646;55.930;2022-08-19T04:56:33;101156.28;;;31.57;16.80
60101;BME280;45978;53.646;55.930;2022-08-19T04:57:34;101162.69;;;30.99;17.38
60101;BME280;45978;53.646;55.930;2022-08-19T04:58:43;101164.78;;;30.66;17.85
60101;BME280;45978;53.646;55.930;2022-08-19T04:59:45;101152.50;;;30.52;18.03
60101;BME280;45978;53.646;55.930;2022-08-19T05:00:46;101156.81;;;30.94;17.43
60101;BME280;45978;53.646;55.930;2022-08-19T05:01:48;101157.66;;;30.94;17.57
60101;BME280;45978;53.646;55.930;2022-08-19T05:02:50;101158.22;;;30.69;17.76
60101;BME280;45978;53.646;55.930;2022-08-19T05:03:52;101156.38;;;30.69;17.81
60101;BME280;45978;53.646;55.930;2022-08-19T05:04:58;101155.84;;;30.95;17.56
60101;BME280;45978;53.646;55.930;2022-08-19T05:06:07;101154.94;;;30.85;17.60
60101;BME280;45978;53.646;55.930;2022-08-19T05:07:09;101161.22;;;30.75;17.70
60101;BME280;45978;53.646;55.930;2022-08-19T05:08:14;101154.22;;;30.63;17.52
60101;BME280;45978;53.646;55.930;2022-08-19T05:09:20;101157.63;;;30.85;17.51
60101;BME280;45978;53.646;55.930;2022-08-19T05:10:23;101164.78;;;31.25;17.30
60101;BME280;45978;53.646;55.930;2022-08-19T05:11:30;101163.25;;;30.13;18.07
60101;BME280;45978;53.646;55.930;2022-08-19T05:12:31;101165.38;;;29.48;18.42
60101;BME280;45978;53.646;55.930;2022-08-19T05:13:33;101161.56;;;29.81;18.42
60101;BME280;45978;53.646;55.930;2022-08-19T05:14:34;101161.50;;;30.03;18.38
60101;BME280;45978;53.646;55.930;2022-08-19T05:15:37;101165.53;;;30.28;18.22
60101;BME280;45978;53.646;55.930;2022-08-19T05:16:39;101149.09;;;30.60;17.90
60101;BME280;45978;53.646;55.930;2022-08-19T05:17:41;101165.88;;;29.94;18.33
60101;BME280;45978;53.646;55.930;2022-08-19T05:19:02;101155.47;;;30.39;17.96
60101;BME280;45978;53.646;55.930;2022-08-19T05:20:22;101161.50;;;30.53;17.73
60101;BME280;45978;53.646;55.930;2022-08-19T05:21:42;101162.94;;;30.76;17.60
60101;BME280;45978;53.646;55.930;2022-08-19T05:23:03;101162.38;;;31.12;17.47
60101;BME280;45978;53.646;55.930;2022-08-19T05:24:05;101168.94;;;31.19;17.33
60101;BME280;45978;53.646;55.930;2022-08-19T05:25:15;101172.75;;;31.36;17.23
60101;BME280;45978;53.646;55.930;2022-08-19T05:26:19;101170.22;;;31.25;17.36
60101;BME280;45978;53.646;55.930;2022-08-19T05:27:20;101161.38;;;30.84;17.87
60101;BME280;45978;53.646;55.930;2022-08-19T05:28:21;101168.94;;;30.80;17.75